Time;durP1;ratioP1;P1;durP2;ratioP2;P2;SDS_P1;SDS_P2;PMS_P1;PMS_P2;Temp;Humidity;BMP_temperature;BMP_pressure;BME280_temperature;BME280_humidity;BME280_pressure;Samples;Min_cycle;Max_cycle;Signal;HPM_P1;HPM_P2
2022/05/26 00:02:41;;;;;;;0.32;0.30;;;;;;;15.40;72.57;101237.03;6173778;28;20047;-72
2022/05/26 00:05:42;;;;;;;1.60;0.30;;;;;;;15.37;72.87;101241.69;6173729;28;20050;-70
2022/05/26 00:08:44;;;;;;;1.90;0.50;;;;;;;15.31;74.82;101239.44;6174962;28;20062;-73
2022/05/26 00:11:47;;;;;;;0.82;0.40;;;;;;;15.30;76.47;101230.63;6172986;28;20178;-71
2022/05/26 00:14:48;;;;;;;2.08;0.73;;;;;;;15.16;78.65;101223.59;6173380;28;20511;-71
2022/05/26 00:17:50;;;;;;;0.55;0.40;;;;;;;15.18;79.52;101220.84;6173728;28;20051;-71
2022/05/26 00:20:51;;;;;;;3.95;0.50;;;;;;;15.05;80.89;101230.53;6173642;28;20047;-70
2022/05/26 00:23:54;;;;;;;1.23;0.50;;;;;;;15.04;81.97;101218.25;6173432;28;20047;-71
2022/05/26 00:26:57;;;;;;;0.73;0.50;;;;;;;14.97;84.76;101223.94;6173863;28;20051;-71
2022/05/26 00:29:58;;;;;;;1.23;0.70;;;;;;;14.90;85.90;101227.94;6172750;28;20070;-71
2022/05/26 00:33:00;;;;;;;0.52;0.52;;;;;;;14.91;87.61;101226.13;6170767;28;20047;-70
2022/05/26 00:36:06;;;;;;;1.67;0.60;;;;;;;14.84;88.69;101223.00;6173455;28;20073;-71
2022/05/26 00:39:10;;;;;;;0.80;0.68;;;;;;;14.92;89.45;101226.03;6173508;28;20054;-70
2022/05/26 00:42:14;;;;;;;0.75;0.73;;;;;;;14.77;90.67;101226.16;6173103;28;20043;-71
2022/05/26 00:45:15;;;;;;;1.15;0.80;;;;;;;14.73;91.55;101228.16;6173256;28;20201;-71
2022/05/26 00:48:20;;;;;;;1.05;0.70;;;;;;;14.72;92.18;101231.75;6173425;28;20047;-71
2022/05/26 00:51:27;;;;;;;2.28;0.90;;;;;;;14.71;93.06;101235.31;6173201;28;20518;-70
2022/05/26 00:54:28;;;;;;;1.27;0.60;;;;;;;14.74;93.09;101234.28;6173251;28;20054;-70
2022/05/26 00:57:37;;;;;;;0.73;0.65;;;;;;;14.69;93.41;101229.28;6173408;28;20050;-71
2022/05/26 01:00:39;;;;;;;3.90;0.98;;;;;;;14.64;93.47;101224.28;6173180;28;20055;-72
2022/05/26 01:03:45;;;;;;;3.70;0.43;;;;;;;14.64;94.23;101234.00;6174083;28;20047;-70
2022/05/26 01:06:49;;;;;;;1.40;1.00;;;;;;;14.63;94.23;101234.97;6173126;28;20058;-71
2022/05/26 01:09:50;;;;;;;3.80;0.70;;;;;;;14.59;94.66;101231.66;6173144;28;20051;-71
2022/05/26 01:12:53;;;;;;;0.90;0.50;;;;;;;14.55;95.55;101232.78;6172830;28;20055;-70
2022/05/26 01:16:11;;;;;;;0.82;0.60;;;;;;;14.53;96.57;101241.75;6173069;28;20545;-71
2022/05/26 01:19:36;;;;;;;4.38;1.05;;;;;;;14.54;96.56;101233.75;6167042;28;20049;-73
2022/05/26 01:22:56;;;;;;;4.50;1.10;;;;;;;14.53;95.94;101225.88;6170177;28;20054;-70
2022/05/26 01:26:24;;;;;;;1.98;0.70;;;;;;;14.47;97.23;101233.22;6171820;28;20055;-71
2022/05/26 01:29:52;;;;;;;1.48;0.88;;;;;;;14.47;97.23;101235.88;6174062;28;20055;-70
2022/05/26 01:33:26;;;;;;;2.38;1.02;;;;;;;14.50;96.97;101228.75;6178315;28;20039;-70
2022/05/26 01:36:41;;;;;;;2.65;0.90;;;;;;;14.50;97.38;101224.28;6170101;28;20054;-70
2022/05/26 01:39:53;;;;;;;1.58;0.70;;;;;;;14.51;97.35;101227.78;6177416;28;20054;-71
2022/05/26 01:43:06;;;;;;;1.63;0.90;;;;;;;14.49;97.24;101225.25;6177053;28;20050;-70
2022/05/26 01:46:13;;;;;;;1.17;0.65;;;;;;;14.49;97.41;101221.72;6177168;28;20058;-70
2022/05/26 01:49:23;;;;;;;0.98;0.77;;;;;;;14.48;97.24;101220.88;6176823;28;20051;-70
2022/05/26 01:52:31;;;;;;;2.38;1.05;;;;;;;14.50;97.38;101224.28;6177116;28;20050;-70
2022/05/26 01:55:41;;;;;;;1.27;0.77;;;;;;;14.52;96.81;101225.03;6176608;28;20518;-70
2022/05/26 01:58:44;;;;;;;0.93;0.77;;;;;;;14.49;97.93;101227.88;6177072;28;20054;-70
2022/05/26 02:01:51;;;;;;;2.08;0.95;;;;;;;14.49;97.82;101238.47;6176433;28;20256;-71
2022/05/26 02:04:56;;;;;;;1.73;0.85;;;;;;;14.49;97.84;101216.44;6193369;28;20058;-71
2022/05/26 02:08:05;;;;;;;0.93;0.82;;;;;;;14.51;97.79;101238.38;6200585;28;20062;-70
2022/05/26 02:11:11;;;;;;;1.00;0.90;;;;;;;14.48;97.54;101218.22;6200643;28;20395;-70
2022/05/26 02:14:15;;;;;;;2.08;1.02;;;;;;;14.48;97.78;101215.59;6200121;28;20057;-70
2022/05/26 02:17:21;;;;;;;1.58;0.98;;;;;;;14.50;97.84;101213.72;6200706;28;20061;-70
2022/05/26 02:20:28;;;;;;;1.80;1.15;;;;;;;14.52;97.73;101224.19;6200313;28;20042;-70
2022/05/26 02:23:36;;;;;;;1.63;1.10;;;;;;;14.51;97.23;101223.34;6200585;28;20051;-70
2022/05/26 02:26:38;;;;;;;1.35;1.08;;;;;;;14.50;97.72;101218.16;6175551;28;20063;-70
2022/05/26 02:29:52;;;;;;;3.30;1.30;;;;;;;14.53;97.45;101218.78;6176024;28;20054;-70
2022/05/26 02:32:55;;;;;;;2.10;1.13;;;;;;;14.54;96.98;101212.59;6175697;28;20055;-70
2022/05/26 02:35:56;;;;;;;2.30;1.20;;;;;;;14.54;97.12;101211.75;6197038;28;20046;-71
2022/05/26 02:38:59;;;;;;;1.50;1.25;;;;;;;14.57;97.37;101211.53;6200091;28;20429;-70
2022/05/26 02:42:01;;;;;;;2.80;1.15;;;;;;;14.55;97.18;101216.91;6199926;28;20046;-70
2022/05/26 02:45:03;;;;;;;4.35;1.25;;;;;;;14.53;98.51;101215.31;6199600;28;20065;-71
2022/05/26 02:48:13;;;;;;;1.33;1.10;;;;;;;14.38;100.00;101228.50;6199900;28;20053;-70
2022/05/26 02:51:23;;;;;;;2.17;1.20;;;;;;;14.10;100.00;101231.97;6199551;28;20073;-70
2022/05/26 02:54:30;;;;;;;;;;;;;;;13.93;100.00;101230.34;6199991;28;20418;-70
2022/05/26 02:57:40;;;;;;;3.28;1.30;;;;;;;13.84;100.00;101248.53;6199548;28;19945;-71
2022/05/26 03:00:57;;;;;;;2.42;1.30;;;;;;;13.78;100.00;101238.34;6199651;28;20054;-71
2022/05/26 03:04:04;;;;;;;2.58;1.42;;;;;;;13.78;100.00;101243.63;6197595;28;20170;-70
2022/05/26 03:07:09;;;;;;;3.38;1.17;;;;;;;13.84;100.00;101251.16;6199607;28;20061;-70
2022/05/26 03:10:12;;;;;;;1.73;1.33;;;;;;;13.79;100.00;101267.28;6199058;28;20065;-71
2022/05/26 03:13:14;;;;;;;1.88;1.65;;;;;;;13.39;100.00;101282.78;6199295;28;20137;-71
2022/05/26 03:16:15;;;;;;;3.78;1.23;;;;;;;13.03;100.00;101275.09;6198777;28;20073;-71
2022/05/26 03:19:17;;;;;;;4.95;2.25;;;;;;;12.81;100.00;101296.53;6174402;28;20135;-71
2022/05/26 03:22:19;;;;;;;2.55;1.60;;;;;;;12.70;100.00;101312.91;6173310;28;20051;-72
2022/05/26 03:25:22;;;;;;;4.45;1.77;;;;;;;12.51;100.00;101299.00;6174810;28;20058;-71
2022/05/26 03:28:24;;;;;;;3.42;2.10;;;;;;;12.55;100.00;101302.34;6174812;28;20062;-71
2022/05/26 03:31:26;;;;;;;7.55;2.28;;;;;;;12.55;100.00;101303.19;6174350;28;20051;-70
2022/05/26 03:41:06;;;;;;;4.75;2.60;;;;;;;12.46;100.00;101300.19;6174482;28;20054;-71
2022/05/26 03:44:09;;;;;;;4.13;2.30;;;;;;;12.46;100.00;101298.41;6174271;28;20047;-71
2022/05/26 03:47:11;;;;;;;4.00;2.92;;;;;;;12.39;100.00;101307.56;6173509;28;20053;-71
2022/05/26 03:50:12;;;;;;;5.18;2.63;;;;;;;12.36;100.00;101307.72;6174427;28;20059;-71
2022/05/26 03:53:14;;;;;;;3.47;2.60;;;;;;;12.40;100.00;101302.22;6174253;28;20042;-71
2022/05/26 03:56:16;;;;;;;4.88;2.65;;;;;;;12.46;100.00;101303.69;6173963;28;20054;-71
2022/05/26 03:59:19;;;;;;;4.50;2.75;;;;;;;12.47;100.00;101317.72;6174187;28;20074;-71
2022/05/26 04:02:20;;;;;;;9.73;2.75;;;;;;;12.54;100.00;101316.47;6173953;28;20046;-72
2022/05/26 04:05:22;;;;;;;4.80;2.55;;;;;;;12.49;100.00;101324.63;6196749;28;20046;-71
2022/05/26 04:08:24;;;;;;;5.65;2.72;;;;;;;12.49;100.00;101324.63;6196454;28;20062;-71
2022/05/26 04:11:27;;;;;;;5.75;2.53;;;;;;;12.50;100.00;101326.31;6197767;28;20417;-71
2022/05/26 04:14:28;;;;;;;6.65;3.55;;;;;;;12.57;100.00;101321.56;6197626;28;20712;-70
2022/05/26 04:17:30;;;;;;;7.70;2.95;;;;;;;12.60;100.00;101324.91;6198144;28;20057;-70
2022/05/26 04:20:32;;;;;;;6.47;3.30;;;;;;;12.62;100.00;101325.66;6197707;28;20076;-71
2022/05/26 04:23:34;;;;;;;4.68;2.95;;;;;;;12.60;100.00;101322.25;6198107;28;20057;-71
2022/05/26 04:26:36;;;;;;;5.55;3.47;;;;;;;12.71;100.00;101332.22;6197608;28;20061;-70
2022/05/26 04:29:38;;;;;;;6.05;2.85;;;;;;;12.72;100.00;101327.81;6197671;28;20062;-71
2022/05/26 04:32:40;;;;;;;4.18;2.75;;;;;;;12.76;100.00;101321.44;6196025;28;20046;-71
2022/05/26 04:35:42;;;;;;;7.68;3.58;;;;;;;12.79;100.00;101324.78;6197510;28;20058;-70
2022/05/26 04:38:44;;;;;;;6.80;3.55;;;;;;;12.81;100.00;101329.94;6197796;28;20414;-71
2022/05/26 04:41:47;;;;;;;7.00;4.05;;;;;;;12.84;100.00;101343.00;6197519;28;20050;-71
2022/05/26 04:44:49;;;;;;;5.68;3.00;;;;;;;12.87;100.00;101340.19;6176435;28;20055;-70
2022/05/26 04:47:52;;;;;;;5.30;3.10;;;;;;;12.88;100.00;101332.19;6173392;28;20086;-70
2022/05/26 04:50:54;;;;;;;15.60;4.97;;;;;;;12.87;100.00;101335.78;6173187;28;20414;-70
2022/05/26 04:53:55;;;;;;;6.18;4.10;;;;;;;12.89;100.00;101333.88;6173022;28;20105;-70
2022/05/26 04:56:59;;;;;;;6.70;3.85;;;;;;;12.88;100.00;101341.91;6173619;28;20062;-70
2022/05/26 05:00:00;;;;;;;7.20;3.42;;;;;;;12.91;100.00;101336.47;6177462;28;20069;-70
2022/05/26 05:03:02;;;;;;;6.35;4.20;;;;;;;12.95;100.00;101346.78;6185772;28;20054;-71
2022/05/26 05:06:03;;;;;;;9.98;4.50;;;;;;;13.01;100.00;101347.38;6201774;28;20054;-70
2022/05/26 05:09:05;;;;;;;5.95;3.92;;;;;;;13.04;100.00;101349.84;6202142;28;20065;-70
2022/05/26 05:12:11;;;;;;;6.95;4.18;;;;;;;13.07;100.00;101347.88;6201805;28;20050;-70
2022/05/26 05:15:20;;;;;;;8.23;4.32;;;;;;;13.11;100.00;101361.75;6191836;28;20061;-70
2022/05/26 05:18:23;;;;;;;6.60;3.88;;;;;;;13.11;100.00;101364.41;6177690;28;20051;-71
2022/05/26 05:21:31;;;;;;;11.48;3.85;;;;;;;13.13;100.00;101370.47;6177559;28;20050;-71
2022/05/26 05:24:37;;;;;;;9.13;4.47;;;;;;;13.14;100.00;101369.53;6177462;28;20047;-71
2022/05/26 05:27:44;;;;;;;7.15;4.53;;;;;;;13.18;100.00;101371.91;6177472;28;20058;-71
2022/05/26 05:30:51;;;;;;;8.00;4.43;;;;;;;13.22;100.00;101372.66;6177653;28;20050;-71
2022/05/26 05:33:56;;;;;;;8.02;4.63;;;;;;;13.26;100.00;101371.50;6177959;28;20055;-71
2022/05/26 05:36:57;;;;;;;10.38;4.32;;;;;;;13.32;100.00;101381.75;6176899;28;20051;-71
2022/05/26 05:39:59;;;;;;;8.73;4.85;;;;;;;13.40;100.00;101376.91;6176764;28;20506;-71
2022/05/26 05:43:02;;;;;;;12.93;5.50;;;;;;;13.55;100.00;101377.84;6177372;28;20518;-71
2022/05/26 05:46:04;;;;;;;8.60;4.90;;;;;;;13.59;100.00;101381.19;6176660;28;20084;-71
2022/05/26 05:49:06;;;;;;;7.13;4.78;;;;;;;13.55;100.00;101388.41;6177339;28;20108;-71
2022/05/26 05:52:11;;;;;;;8.30;4.72;;;;;;;13.57;100.00;101388.31;6176758;28;20057;-71
2022/05/26 05:55:12;;;;;;;14.68;5.45;;;;;;;13.64;100.00;101394.97;6173172;28;20097;-72
2022/05/26 05:58:15;;;;;;;11.35;4.95;;;;;;;13.76;100.00;101393.41;6176701;28;20054;-71
2022/05/26 06:01:17;;;;;;;11.45;6.45;;;;;;;13.80;100.00;101395.78;6176541;28;20054;-72
2022/05/26 06:04:18;;;;;;;9.68;5.28;;;;;;;13.85;100.00;101393.78;6184551;28;20058;-70
2022/05/26 06:07:21;;;;;;;9.82;5.05;;;;;;;13.86;100.00;101399.91;6176657;28;20054;-72
2022/05/26 06:10:23;;;;;;;12.45;5.90;;;;;;;13.87;100.00;101409.53;6175412;28;20392;-71
2022/05/26 06:13:26;;;;;;;8.10;5.00;;;;;;;13.90;100.00;101407.56;6176268;28;20054;-72
2022/05/26 06:16:29;;;;;;;6.63;4.13;;;;;;;13.95;100.00;101402.03;6176254;28;20424;-71
2022/05/26 06:19:30;;;;;;;9.63;4.90;;;;;;;14.05;100.00;101402.34;6176045;28;20046;-72
2022/05/26 06:22:32;;;;;;;11.65;5.03;;;;;;;14.08;100.00;101403.03;6176351;28;20047;-71
2022/05/26 06:25:34;;;;;;;8.50;4.80;;;;;;;14.20;100.00;101406.75;6175822;28;20055;-71
2022/05/26 06:38:35;;;;;;;10.68;5.20;;;;;;;14.27;100.00;101423.13;6176022;28;20054;-72
2022/05/26 06:44:57;;;;;;;10.30;4.25;;;;;;;14.21;100.00;101430.44;6175124;28;20051;-71
2022/05/26 06:47:59;;;;;;;9.90;4.93;;;;;;;14.26;100.00;101431.97;6175450;28;20392;-73
2022/05/26 06:51:00;;;;;;;8.50;4.40;;;;;;;14.34;100.00;101445.59;6175463;28;20054;-73
2022/05/26 06:54:01;;;;;;;7.68;4.00;;;;;;;14.41;100.00;101441.69;6175326;28;20066;-72
2022/05/26 06:57:04;;;;;;;8.90;4.53;;;;;;;14.43;100.00;101450.34;6174024;28;20058;-72
2022/05/26 07:00:09;;;;;;;9.07;3.90;;;;;;;14.44;100.00;101459.97;6173829;28;20054;-71
2022/05/26 07:03:11;;;;;;;4.68;3.60;;;;;;;14.55;100.00;101454.97;6175136;28;20054;-72
2022/05/26 07:06:17;;;;;;;9.05;3.30;;;;;;;14.61;100.00;101467.81;6173763;28;20043;-71
2022/05/26 07:09:18;;;;;;;6.38;3.15;;;;;;;14.56;100.00;101453.16;6168923;28;20050;-71
2022/05/26 07:12:20;;;;;;;6.43;3.70;;;;;;;14.57;100.00;101471.59;6174704;28;20055;-72
2022/05/26 07:15:22;;;;;;;6.70;3.13;;;;;;;14.67;100.00;101463.97;6170407;28;20058;-71
2022/05/26 07:18:24;;;;;;;7.00;3.83;;;;;;;14.70;100.00;101464.63;6173294;28;20054;-71
2022/05/26 07:21:25;;;;;;;6.18;3.05;;;;;;;14.76;100.00;101467.84;6171148;28;20069;-71
2022/05/26 07:24:27;;;;;;;5.53;2.17;;;;;;;14.78;100.00;101474.78;6170213;28;20054;-70
2022/05/26 07:27:28;;;;;;;7.65;2.47;;;;;;;14.77;100.00;101475.72;6163396;28;20055;-72
2022/05/26 07:30:31;;;;;;;6.50;2.67;;;;;;;14.83;100.00;101472.72;6169638;28;20051;-72
2022/05/26 07:33:32;;;;;;;5.55;2.13;;;;;;;15.03;100.00;101495.31;6171906;28;20062;-71
2022/05/26 07:43:23;;;;;;;5.25;1.88;;;;;;;14.97;100.00;101491.25;6173579;28;20122;-72
2022/05/26 07:46:27;;;;;;;3.20;1.67;;;;;;;14.89;100.00;101498.78;6174113;28;20046;-72
2022/05/26 07:49:28;;;;;;;2.92;1.83;;;;;;;14.78;100.00;101495.09;6169804;28;20051;-73
2022/05/26 07:52:29;;;;;;;5.63;2.40;;;;;;;14.73;100.00;101494.53;6174153;28;20487;-72
2022/05/26 07:55:33;;;;;;;2.78;1.73;;;;;;;14.78;100.00;101492.44;6173910;28;20047;-73
2022/05/26 07:58:35;;;;;;;8.05;2.75;;;;;;;14.91;100.00;101499.56;6174476;28;20050;-72
2022/05/26 08:01:38;;;;;;;10.05;3.05;;;;;;;15.10;100.00;101509.91;6174679;28;20490;-72
2022/05/26 08:04:39;;;;;;;5.78;2.33;;;;;;;15.24;100.00;101506.44;6150110;29;20051;-72
2022/05/26 08:07:43;;;;;;;5.78;1.77;;;;;;;15.24;100.00;101514.38;6150007;29;20059;-72
2022/05/26 08:10:44;;;;;;;3.08;1.70;;;;;;;15.19;100.00;101506.72;6150128;28;20062;-72
2022/05/26 08:13:46;;;;;;;2.45;1.40;;;;;;;15.17;100.00;101528.91;6151892;28;20043;-73
2022/05/26 08:16:48;;;;;;;4.53;1.77;;;;;;;15.32;100.00;101527.16;6164517;28;20084;-73
2022/05/26 08:19:50;;;;;;;5.32;1.83;;;;;;;15.29;100.00;101522.88;6158525;28;20058;-73
2022/05/26 08:22:52;;;;;;;9.15;1.35;;;;;;;15.39;100.00;101529.31;6171350;28;20054;-72
2022/05/26 08:25:53;;;;;;;1.00;0.90;;;;;;;15.58;100.00;101528.19;6158323;28;20062;-73
2022/05/26 08:28:55;;;;;;;3.72;1.35;;;;;;;15.73;100.00;101514.88;6167465;28;20057;-73
2022/05/26 08:31:58;;;;;;;4.00;1.50;;;;;;;15.83;100.00;101523.09;6166697;28;20048;-75
2022/05/26 08:35:00;;;;;;;4.50;1.20;;;;;;;15.78;100.00;101530.50;6149182;29;20051;-74
2022/05/26 08:38:02;;;;;;;0.95;0.80;;;;;;;15.64;98.74;101536.66;6149881;29;20514;-74
2022/05/26 08:41:04;;;;;;;2.22;1.25;;;;;;;15.56;100.00;101533.59;6161936;28;20052;-74
2022/05/26 08:44:11;;;;;;;3.65;1.50;;;;;;;15.61;98.25;101536.81;6173658;28;20047;-73
2022/05/26 08:47:16;;;;;;;1.65;1.10;;;;;;;15.66;99.07;101548.00;6171550;28;20134;-74
2022/05/26 08:50:21;;;;;;;1.20;0.80;;;;;;;15.78;100.00;101542.91;6170525;28;20047;-73
2022/05/26 08:53:31;;;;;;;2.50;1.48;;;;;;;16.17;91.02;101553.66;6171813;28;20454;-74
2022/05/26 08:56:33;;;;;;;2.80;1.38;;;;;;;16.05;92.37;101550.91;6165520;28;20077;-75
2022/05/26 08:59:39;;;;;;;1.40;0.90;;;;;;;15.95;90.83;101561.25;6171095;28;20051;-73
2022/05/26 09:02:42;;;;;;;1.77;1.00;;;;;;;15.95;91.80;101562.09;6171946;28;20050;-73
2022/05/26 09:05:48;;;;;;;2.55;1.27;;;;;;;16.14;86.96;101553.84;6157381;28;20046;-74
2022/05/26 09:15:37;;;;;;;1.52;0.70;;;;;;;16.40;80.71;101560.13;6148894;29;20047;-75
2022/05/26 09:18:41;;;;;;;0.63;0.60;;;;;;;16.35;80.88;101566.66;6149442;29;20195;-74
2022/05/26 09:21:44;;;;;;;1.80;0.77;;;;;;;16.46;76.93;101583.59;6164001;28;20133;-74
2022/05/26 09:24:45;;;;;;;1.75;0.98;;;;;;;16.59;75.11;101577.50;6172919;28;20055;-73
2022/05/26 09:27:52;;;;;;;2.00;0.55;;;;;;;16.65;73.11;101566.47;6172885;28;20058;-73
2022/05/26 09:30:54;;;;;;;0.40;0.40;;;;;;;16.57;74.30;101574.06;6175585;28;20047;-74
2022/05/26 09:34:07;;;;;;;0.68;0.35;;;;;;;16.52;79.11;101586.78;6196563;28;20418;-74
2022/05/26 09:37:09;;;;;;;3.50;0.65;;;;;;;16.47;77.56;101595.06;6195112;28;20050;-74
2022/05/26 09:40:18;;;;;;;0.50;0.30;;;;;;;16.33;79.42;101595.94;6172969;28;20061;-75
2022/05/26 09:43:23;;;;;;;;;;;;;;;16.36;77.68;101601.06;6173597;28;20077;-73
2022/05/26 09:46:27;;;;;;;1.90;1.02;;;;;;;16.39;75.70;101600.84;6173063;28;19933;-73
2022/05/26 09:49:38;;;;;;;1.42;0.60;;;;;;;16.43;77.97;101609.47;6153206;29;20051;-73
2022/05/26 09:52:42;;;;;;;2.78;0.80;;;;;;;16.44;80.15;101601.44;6153282;29;20086;-73
2022/05/26 09:55:47;;;;;;;1.75;0.50;;;;;;;16.52;79.31;101605.38;6152905;29;20043;-73
2022/05/26 09:58:49;;;;;;;4.07;0.82;;;;;;;16.60;80.46;101598.63;6153045;29;20047;-78
2022/05/26 10:01:52;;;;;;;3.60;0.82;;;;;;;16.67;78.71;101607.06;6168744;28;20502;-71
2022/05/26 10:05:05;;;;;;;1.50;0.50;;;;;;;16.75;77.90;101604.75;6200663;28;20042;-72
2022/05/26 10:08:14;;;;;;;5.63;0.65;;;;;;;16.78;76.10;101609.88;6200905;28;20056;-74
2022/05/26 10:11:24;;;;;;;3.20;1.10;;;;;;;16.79;77.10;101608.91;6200687;28;20133;-72
2022/05/26 10:14:49;;;;;;;3.67;1.48;;;;;;;16.67;78.87;101618.50;6200279;28;20049;-73
2022/05/26 10:18:03;;;;;;;1.30;0.70;;;;;;;16.62;80.03;101620.63;6201027;28;20054;-76
2022/05/26 10:21:13;;;;;;;3.92;0.47;;;;;;;16.78;76.94;101617.84;6200716;28;20050;-76
2022/05/26 10:24:32;;;;;;;3.70;0.40;;;;;;;16.76;73.83;101617.09;6185377;28;20070;-77
2022/05/26 10:27:44;;;;;;;1.25;0.63;;;;;;;16.91;73.92;101610.78;6176568;28;20054;-77
2022/05/26 10:30:54;;;;;;;1.55;0.60;;;;;;;16.97;71.63;101628.09;6174592;28;20054;-77
2022/05/26 10:34:18;;;;;;;0.95;0.52;;;;;;;16.94;74.20;101620.31;6156618;28;20054;-77
2022/05/26 10:37:30;;;;;;;3.90;0.75;;;;;;;17.11;76.29;101624.53;6173644;28;20050;-75
2022/05/26 10:40:39;;;;;;;4.15;0.73;;;;;;;17.25;75.17;101619.97;6175849;28;20061;-75
2022/05/26 10:43:46;;;;;;;1.80;0.55;;;;;;;17.50;73.30;101615.66;6175119;28;20131;-75
2022/05/26 10:46:55;;;;;;;1.42;0.50;;;;;;;17.83;68.11;101636.44;6175814;28;20383;-77
2022/05/26 10:50:00;;;;;;;;;;;;;;;17.79;66.69;101623.47;6176248;28;20051;-77
2022/05/26 10:53:11;;;;;;;3.00;0.98;;;;;;;17.95;67.74;101624.94;6175936;28;19929;-78
2022/05/26 10:56:23;;;;;;;1.65;0.30;;;;;;;18.11;69.31;101629.19;6175054;28;20058;-75
2022/05/26 10:59:29;;;;;;;1.30;0.40;;;;;;;18.27;68.74;101634.28;6174628;28;20057;-77
2022/05/26 11:02:37;;;;;;;0.60;0.40;;;;;;;18.41;67.39;101628.81;6181689;28;20055;-77
2022/05/26 11:05:44;;;;;;;3.20;0.43;;;;;;;18.54;67.37;101626.94;6175265;28;20043;-76
2022/05/26 11:08:53;;;;;;;1.95;0.52;;;;;;;18.74;66.95;101626.38;6168639;28;20055;-76
2022/05/26 11:12:00;;;;;;;1.00;0.20;;;;;;;18.86;62.48;101629.94;6172916;28;20047;-76
2022/05/26 11:18:30;;;;;;;1.35;0.40;;;;;;;18.03;65.83;101634.19;6175002;28;20050;-74
2022/05/26 11:21:32;;;;;;;4.82;1.00;;;;;;;17.80;67.04;101651.75;6174893;28;20101;-76
2022/05/26 11:24:35;;;;;;;1.92;0.50;;;;;;;17.64;64.94;101628.00;6175248;28;20047;-76
2022/05/26 11:27:43;;;;;;;1.40;0.40;;;;;;;18.13;64.52;101622.81;6170384;28;20050;-75
2022/05/26 11:37:34;;;;;;;0.60;0.40;;;;;;;18.31;64.48;101611.81;6174786;28;20058;-75
2022/05/26 11:40:45;;;;;;;0.32;0.32;;;;;;;18.84;59.64;101620.34;6167762;28;20050;-74
2022/05/26 11:44:00;;;;;;;0.70;0.45;;;;;;;19.19;57.98;101617.72;6150588;29;20074;-74
2022/05/26 11:47:28;;;;;;;0.40;0.30;;;;;;;19.58;54.55;101626.31;6171721;28;20046;-77
2022/05/26 11:50:57;;;;;;;1.07;0.40;;;;;;;19.39;56.53;101624.19;6157873;28;20062;-73
2022/05/26 11:53:59;;;;;;;3.20;0.30;;;;;;;19.20;58.40;101614.94;6149979;28;20051;-76
2022/05/26 11:57:40;;;;;;;0.20;0.20;;;;;;;19.14;55.28;101619.88;6150542;29;20091;-76
2022/05/26 12:00:43;;;;;;;0.93;0.40;;;;;;;18.95;56.29;101615.09;6149932;28;20058;-74
2022/05/26 12:04:01;;;;;;;0.10;0.10;;;;;;;18.80;57.31;101613.56;6173892;28;20050;-74
2022/05/26 12:07:05;;;;;;;1.35;0.50;;;;;;;18.58;59.56;101625.78;6173717;28;20051;-76
2022/05/26 12:10:21;;;;;;;1.42;0.30;;;;;;;19.56;54.14;101614.91;6173726;28;20051;-75
2022/05/26 12:13:32;;;;;;;0.43;0.30;;;;;;;19.73;53.10;101614.47;6174110;28;20050;-75
2022/05/26 12:16:34;;;;;;;0.75;0.30;;;;;;;19.81;57.28;101608.56;6173938;28;20495;-76
2022/05/26 12:19:42;;;;;;;0.50;0.32;;;;;;;19.42;56.78;101598.16;6174089;28;20062;-75
2022/05/26 12:23:15;;;;;;;0.70;0.45;;;;;;;19.08;59.07;101612.38;6174984;28;20043;-77
2022/05/26 12:26:46;;;;;;;2.25;0.57;;;;;;;18.66;61.01;101604.72;6172782;28;20050;-73
2022/05/26 12:30:05;;;;;;;0.35;0.30;;;;;;;18.37;59.14;101609.53;6167785;28;20423;-76
2022/05/26 12:33:38;;;;;;;2.25;0.40;;;;;;;18.27;60.34;101605.84;6167239;28;20046;-77
2022/05/26 12:36:57;;;;;;;0.20;0.20;;;;;;;18.38;62.21;101591.75;6146378;28;20054;-74
2022/05/26 12:40:33;;;;;;;0.47;0.40;;;;;;;19.00;62.36;101591.63;6166236;28;20517;-75
2022/05/26 12:44:19;;;;;;;0.82;0.38;;;;;;;19.22;60.06;101586.34;6163256;28;20608;-76
2022/05/26 12:47:40;;;;;;;0.45;0.45;;;;;;;19.60;58.89;101579.03;6164541;28;20050;-75
2022/05/26 12:50:44;;;;;;;1.48;0.50;;;;;;;19.51;58.36;101586.78;6174088;28;20055;-74
2022/05/26 12:53:52;;;;;;;3.63;0.60;;;;;;;19.09;61.21;101580.25;6173454;28;20156;-74
2022/05/26 12:56:57;;;;;;;0.80;0.40;;;;;;;18.98;61.06;101573.06;6172911;28;20046;-76
2022/05/26 13:00:31;;;;;;;0.68;0.35;;;;;;;19.06;60.50;101574.31;6169348;28;20047;-74
2022/05/26 13:03:39;;;;;;;0.57;0.40;;;;;;;19.01;60.40;101570.19;6167868;28;20130;-74
2022/05/26 13:06:44;;;;;;;1.65;0.63;;;;;;;18.81;61.48;101570.84;6165499;28;20049;-74
2022/05/26 13:09:50;;;;;;;2.08;0.45;;;;;;;18.66;60.62;101562.13;6170432;28;20133;-74
2022/05/26 13:12:53;;;;;;;0.95;0.40;;;;;;;18.49;59.74;101568.72;6166973;28;20498;-74
2022/05/26 13:15:54;;;;;;;0.65;0.32;;;;;;;18.31;61.57;101570.06;6172742;28;20047;-74
2022/05/26 13:19:08;;;;;;;0.82;0.40;;;;;;;18.33;61.77;101561.97;6174040;28;20050;-74
2022/05/26 13:22:14;;;;;;;1.95;0.57;;;;;;;18.34;63.13;101558.34;6195243;28;20050;-74
2022/05/26 13:25:22;;;;;;;0.55;0.55;;;;;;;18.59;62.72;101568.06;6201865;28;20503;-74
2022/05/26 13:28:28;;;;;;;0.90;0.30;;;;;;;18.76;63.11;101565.03;6201872;28;20057;-74
2022/05/26 13:34:51;;;;;;;0.45;0.40;;;;;;;18.55;62.27;101561.25;6177316;28;20074;-75
2022/05/26 13:37:53;;;;;;;0.93;0.60;;;;;;;18.40;62.54;101553.44;6177593;28;20066;-74
2022/05/26 13:40:55;;;;;;;5.75;0.47;;;;;;;18.59;63.09;101544.09;6176144;28;20498;-74
2022/05/26 13:43:57;;;;;;;2.25;0.50;;;;;;;18.89;62.42;101549.78;6177129;28;20062;-74
2022/05/26 13:47:02;;;;;;;0.65;0.50;;;;;;;18.93;64.02;101553.91;6177415;28;20050;-73
2022/05/26 13:50:08;;;;;;;4.47;0.73;;;;;;;18.93;62.08;101543.25;6176615;28;20046;-74
2022/05/26 13:53:14;;;;;;;0.40;0.30;;;;;;;18.88;63.89;101549.91;6171234;28;20043;-76
2022/05/26 13:56:28;;;;;;;1.52;0.70;;;;;;;18.80;62.76;101546.97;6174867;28;20051;-76
2022/05/26 13:59:37;;;;;;;1.05;0.57;;;;;;;18.83;61.22;101542.28;6188854;28;20580;-75
2022/05/26 14:02:40;;;;;;;0.28;0.28;;;;;;;18.71;63.55;101541.41;6169906;28;20494;-75
2022/05/26 14:09:27;;;;;;;0.47;0.30;;;;;;;18.60;62.96;101533.31;6317258;27;20395;-73
2022/05/26 14:12:30;;;;;;;0.63;0.40;;;;;;;18.41;63.43;101533.00;6297712;28;20056;-73
2022/05/26 14:15:39;;;;;;;0.80;0.40;;;;;;;18.31;64.44;101540.81;6277057;28;20056;-73
2022/05/26 14:18:44;;;;;;;2.17;0.30;;;;;;;18.15;66.39;101535.72;6268332;28;20052;-73
2022/05/26 14:21:49;;;;;;;0.47;0.30;;;;;;;18.11;66.74;101533.41;6267850;28;20049;-72
2022/05/26 14:24:54;;;;;;;0.52;0.52;;;;;;;18.00;68.19;101543.03;6267747;28;20045;-74
2022/05/26 14:27:57;;;;;;;0.85;0.50;;;;;;;18.13;66.24;101545.66;6267399;28;20458;-74
2022/05/26 14:30:58;;;;;;;1.27;0.70;;;;;;;18.09;66.34;101543.31;6267366;28;20535;-73
2022/05/26 14:34:03;;;;;;;2.83;0.65;;;;;;;18.08;66.34;101539.81;6267630;28;20056;-72
2022/05/26 14:37:05;;;;;;;1.10;0.50;;;;;;;18.01;67.32;101538.53;6263417;28;20041;-72
2022/05/26 14:40:10;;;;;;;1.27;0.55;;;;;;;18.08;67.02;101525.66;6267281;28;20528;-71
2022/05/26 14:43:16;;;;;;;5.32;1.10;;;;;;;17.99;69.69;101524.53;6266060;28;20424;-72
2022/05/26 14:46:17;;;;;;;3.70;0.60;;;;;;;17.99;69.58;101521.84;6276646;28;20523;-73
2022/05/26 14:49:18;;;;;;;0.73;0.45;;;;;;;17.99;67.12;101522.72;6267209;28;20054;-73
2022/05/26 14:52:23;;;;;;;1.35;0.47;;;;;;;18.10;66.52;101529.91;6264041;28;20048;-73
2022/05/26 14:55:29;;;;;;;0.65;0.63;;;;;;;18.14;67.69;101522.56;6249118;28;20050;-73
2022/05/26 14:58:30;;;;;;;0.82;0.57;;;;;;;18.16;66.79;101515.28;6252529;28;20053;-74
2022/05/26 15:01:32;;;;;;;3.13;0.52;;;;;;;17.99;68.94;101522.72;6266988;28;20448;-73
2022/05/26 15:04:33;;;;;;;1.70;0.50;;;;;;;17.95;70.45;101521.22;6266811;28;20053;-73
2022/05/26 15:07:35;;;;;;;1.05;0.47;;;;;;;17.88;70.75;101524.44;6266385;28;20045;-74
2022/05/26 15:10:38;;;;;;;3.25;0.70;;;;;;;17.87;71.21;101525.41;6263242;28;20056;-74
2022/05/26 15:13:40;;;;;;;3.38;0.70;;;;;;;17.86;71.65;101515.72;6263609;28;20052;-73